Terminal Aerodrome Forecast
Issued by NWS Goodland, KS

Home | Current Version | Previous Version | Text Only | Print | Product List | Glossary On
Versions: 1 2 3 4 5 6 7 8 9 10 11 12 13 14 15
000
FTUS43 KGLD 301132
TAFGLD
TAF
KGLD 301132Z 3012/3112 21014G20KT P6SM SKC
     FM301500 33011KT P6SM SKC
     FM310000 36009KT P6SM SKC
     FM310300 VRB06KT P6SM FEW250=

USA.gov is the U.S. government's official web portal to all federal, state and local government web resources and services.